logo
App data

Sweezy Gunner

Sweezy Gunner is an eye melting, brain bending, mouse squeezing 2D Shoot em up. destroy everything in your path, Upgrade the Sweezy Gunner ship. A Large open World! Travel through the lush green fields, frozen tundra and arid desert. Explore the depths of the many dungeons, caves and temples and collect that tasty loot!
Store | Hub | SteamDB | Site
Developer: Windybeard Publisher: Windybeard
Genre: Action, Indie
Languages: English
Tags: Indie (35), Action (35), Bullet Hell (17), Space (13), Shoot 'Em Up (12), Shooter (11)
Category: Single-player, Steam Achievements, Steam Trading Cards
Release date: May 6, 2014
Price: $3.99
Old userscore: 81% Owners: 20,000 .. 50,000
Followers: 283
Playtime total: 01:48 (average) 01:48 (median)

Steam Spy is still in beta, so expect major bugs.

Owners data:

Access restricted.

This feature is only available to users with special access rights. Sorry.

If you want to proceed, you need to register or log in first and then back Steam Spy on Patreon. Look for Indie or Pro pledge.

Don't forget to use the same email as on Steam Spy!

If you've recently backed Steam Spy on Patreon, please note, that it might take around 15 minutes for your access rights to sync. In most cases you'll need to re-login on Steam Spy too.

Audience in 2 weeks:

Access restricted.

This feature is only available to users with special access rights. Sorry.

If you want to proceed, you need to register or log in first and then back Steam Spy on Patreon. Look for Indie or Pro pledge.

Don't forget to use the same email as on Steam Spy!

If you've recently backed Steam Spy on Patreon, please note, that it might take around 15 minutes for your access rights to sync. In most cases you'll need to re-login on Steam Spy too.

Peak daily concurrent players:

CCU data courtesy of SteamDB. Used with permission.

Hourly concurrent players:

Daily Twitch stats:

Hourly Twitch stats:

Followers over time

Access restricted.

This feature is only available to users with special access rights. Sorry.

If you want to proceed, you need to register or log in first and then back Steam Spy on Patreon. Look for Indie or Pro pledge.

Don't forget to use the same email as on Steam Spy!

If you've recently backed Steam Spy on Patreon, please note, that it might take around 15 minutes for your access rights to sync. In most cases you'll need to re-login on Steam Spy too.

Views for top 50 videos on YouTube for this game:

Games similar to this one:

# Game Release date
Price
Score rank
(Userscore / Metascore)
Owners
Players
Playtime (Median)
1 The guard of dungeon Mar 7, 2017 $6.99N/A (N/A)20,000 .. 50,0000%00:00 (00:00)
2 Richie's Plank Experience Dec 13, 2017 $14.99N/A (N/A)50,000 .. 100,00016.67%00:25 (00:08)
3 Cold Waters Jun 5, 2017 $39.99N/A (N/A)50,000 .. 100,0000%00:00 (00:00)
4 Machine Hunt May 15, 2017 $0.5N/A (N/A)50,000 .. 100,0000%00:00 (00:00)
5 Masky Dec 16, 2016 $0.99N/A (N/A)0 .. 20,0000%00:00 (00:00)
6 King Kaiju Jan 31, 2017 $4.99N/A (N/A)0 .. 20,0000%00:00 (00:00)
7 A grande bagunça espacial - The big space mess Apr 5, 2016 $0.99N/A (N/A)200,000 .. 500,0000%00:00 (00:00)
8 Brother Wings Jan 10, 2017 $0.99N/A (N/A)20,000 .. 50,0000%00:00 (00:00)
9 Burst Mar 14, 2016 N/AN/A (N/A)20,000 .. 50,0006.67%04:29 (01:29)
10 I Expect You To Die Apr 25, 2017 $24.99N/A (N/A/77%)200,000 .. 500,0000%00:00 (00:00)
11 Autumn Sep 23, 2014 $2.99N/A (N/A)100,000 .. 200,0000%00:00 (00:00)
12 Dungeon Painter Studio Feb 26, 2017 $14.99N/A (N/A)50,000 .. 100,00012.5%01:34 (00:31)
13 The Dolls: Reborn May 25, 2016 $4.99N/A (N/A)20,000 .. 50,0000%00:00 (00:00)
14 Glowfish Sep 30, 2011 $9.99N/A (N/A)20,000 .. 50,0000%00:00 (00:00)
15 Tribloos 2 Jan 30, 2014 $4.99N/A (N/A)100,000 .. 200,0000%00:00 (00:00)
16 Arcadia Dec 2, 2010 N/AN/A (N/A)0 .. 20,0000%00:00 (00:00)
17 About Love, Hate and the other ones Dec 12, 2014 $6.99N/A (N/A)100,000 .. 200,0000%00:00 (00:00)
18 Blocks That Matter Aug 19, 2011 $4.99N/A (N/A/72%)200,000 .. 500,0000%00:00 (00:00)
19 On Rusty Trails Jun 13, 2016 $12.99N/A (N/A/77%)20,000 .. 50,0000%00:00 (00:00)
20 Puzzler World 2 Oct 24, 2011 $4.99N/A (N/A)50,000 .. 100,0000%00:00 (00:00)
21 Diadra Empty Jul 21, 2015 $5.99N/A (N/A)20,000 .. 50,0000%00:00 (00:00)
22 Luxor Evolved Mar 1, 2012 $9.99N/A (N/A)20,000 .. 50,0000%00:00 (00:00)
23 Strata May 29, 2014 $7.99N/A (N/A)20,000 .. 50,0000%00:00 (00:00)
24 Rigonauts Aug 7, 2012 $9.99N/A (N/A/60%)0 .. 20,0000%00:00 (00:00)
25 AaAaAA!!! - A Reckless Disregard for Gravity Sep 3, 2009 $9.99N/A (N/A/81%)100,000 .. 200,0000%00:00 (00:00)
26 Divide By Sheep Jul 2, 2015 $4.99N/A (N/A/83%)2,000,000 .. 5,000,0000.44%00:01 (00:00)
27 Metal Drift Oct 22, 2009 $9.99N/A (N/A)20,000 .. 50,0000%00:00 (00:00)
28 Aqua Kitty - Milk Mine Defender Feb 3, 2014 $6.99N/A (N/A)20,000 .. 50,0000%00:00 (00:00)
29 Luxor: 5th Passage Jan 25, 2011 $9.99N/A (N/A)50,000 .. 100,0000%00:00 (00:00)
30 Grapple Mar 9, 2015 $6.99N/A (N/A)20,000 .. 50,0000%00:00 (00:00)
31 A Good Snowman Is Hard To Build Feb 25, 2015 $9.99N/A (N/A)50,000 .. 100,0000%00:00 (00:00)
32 Spy Chameleon - RGB Agent Jun 11, 2014 $4.99N/A (N/A)20,000 .. 50,0000%00:00 (00:00)
33 Quantum Rush Champions Dec 4, 2014 $9.99N/A (N/A)20,000 .. 50,0000%00:00 (00:00)
34 Ichi Jun 12, 2014 $4.99N/A (N/A)100,000 .. 200,0000%00:00 (00:00)
35 Laserlife Sep 22, 2015 $9.99N/A (N/A)20,000 .. 50,0000%00:00 (00:00)
36 The Blue Flamingo Nov 18, 2014 $4.99N/A (N/A/55%)100,000 .. 200,0000%00:00 (00:00)
37 Letter Quest: Grimm's Journey Nov 20, 2014 N/AN/A (N/A/73%)100,000 .. 200,0000%00:00 (00:00)
38 Point Perfect Jul 17, 2014 $4.99N/A (N/A)50,000 .. 100,0000%00:00 (00:00)
39 Over The Void Nov 11, 2014 $4.99N/A (N/A)20,000 .. 50,0000%00:00 (00:00)
40 Metrocide Oct 20, 2014 $12.99N/A (N/A/68%)50,000 .. 100,0000%00:00 (00:00)
41 Sokobond Jul 21, 2014 $9.99N/A (N/A/82%)20,000 .. 50,0000%00:00 (00:00)
42 REVOLVER360 RE:ACTOR Oct 24, 2014 $9.99N/A (N/A)50,000 .. 100,0000%00:00 (00:00)
43 Pressured Jul 18, 2014 $2.99N/A (N/A)200,000 .. 500,0000%00:00 (00:00)
44 GamersGoMakers Aug 8, 2014 $8.99N/A (N/A)20,000 .. 50,0000%00:00 (00:00)
45 Automation - The Car Company Tycoon Game Mar 12, 2015 $29.99N/A (N/A)200,000 .. 500,00030%02:16 (02:13)
46 Bloop Reloaded Feb 6, 2015 FreeN/A (N/A)100,000 .. 200,00011.11%00:35 (00:23)
47 Swipecart May 8, 2014 $2.99N/A (N/A)50,000 .. 100,0000%00:00 (00:00)
48 Streets of Chaos Jan 23, 2015 N/AN/A (N/A)100,000 .. 200,0000%00:00 (00:00)
49 Marble Duel: Sphere-Matching Tactical Fantasy Nov 12, 2015 $14.99N/A (N/A)50,000 .. 100,0000%00:00 (00:00)
50 GunWorld Feb 11, 2015 $1.99N/A (N/A)0 .. 20,0000%00:00 (00:00)
51 Castle Jan 7, 2015 $4.99N/A (N/A)20,000 .. 50,00011.11%04:30 (01:30)
52 Dodge Mar 16, 2015 $1.99N/A (N/A)20,000 .. 50,0000%00:00 (00:00)
53 Cubot Jan 8, 2015 $1.99N/A (N/A)20,000 .. 50,0000%00:00 (00:00)
54 Avalanche 2: Super Avalanche Jun 11, 2015 $4.99N/A (N/A)50,000 .. 100,0000%00:00 (00:00)
55 Death Goat Jun 7, 2016 N/AN/A (N/A)20,000 .. 50,0000%00:00 (00:00)
56 Stephen's Sausage Roll Apr 18, 2016 $29.99N/A (N/A/90%)20,000 .. 50,0000%00:00 (00:00)
57 Bob Was Hungry Aug 19, 2015 $9.99N/A (N/A)50,000 .. 100,0000%00:00 (00:00)
58 Shutshimi Aug 25, 2015 $4.99N/A (N/A)50,000 .. 100,0000%00:00 (00:00)
59 Pixel Puzzles 2: Birds Feb 20, 2015 $1.59N/A (N/A)200,000 .. 500,0000%00:00 (00:00)
60 Square Heroes Apr 9, 2015 $3.99N/A (N/A)20,000 .. 50,0000%00:00 (00:00)
61 Quell May 14, 2015 $3.99N/A (N/A)0 .. 20,0000%00:00 (00:00)
62 1931: Scheherazade at the Library of Pergamum Mar 26, 2015 $9.99N/A (N/A)0 .. 20,0000%00:00 (00:00)
63 Stay Alight Mar 2, 2015 $3.99N/A (N/A)50,000 .. 100,0000%00:00 (00:00)
64 Steam and Metal Feb 9, 2015 $4.99N/A (N/A)0 .. 20,0000%00:00 (00:00)
65 Cibele Nov 2, 2015 $8.99N/A (N/A/71%)50,000 .. 100,0000%00:00 (00:00)
66 Red Goblin: Cursed Forest May 15, 2015 $4.99N/A (N/A)0 .. 20,00033.33%01:00 (00:20)
67 Herding Dog Dec 25, 2015 $0.99N/A (N/A)0 .. 20,0000%00:00 (00:00)
68 Demon Hearts Aug 7, 2015 $3.99N/A (N/A)0 .. 20,0000%00:00 (00:00)
69 Blitz Breaker Feb 2, 2016 $0.99N/A (N/A)0 .. 20,0000%00:00 (00:00)
70 Power of Love Jul 21, 2015 $0.99N/A (N/A)20,000 .. 50,0000%00:00 (00:00)
71 Narcissu 10th Anniversary Anthology Project Jan 27, 2016 $2.99N/A (N/A)20,000 .. 50,0000%00:00 (00:00)
72 Fingered Aug 18, 2015 $1.87N/A (N/A)50,000 .. 100,0000%00:00 (00:00)
73 Until I Have You Apr 4, 2016 $13.99N/A (N/A/69%)20,000 .. 50,0000%00:00 (00:00)
74 Painters Guild Sep 1, 2015 $9.99N/A (N/A)20,000 .. 50,0000%00:00 (00:00)
75 Pester Aug 21, 2015 $0.99N/A (N/A)100,000 .. 200,0000%00:00 (00:00)
76 In Between Aug 21, 2015 $11.99N/A (N/A/68%)50,000 .. 100,0000%00:00 (00:00)
77 The Reject Demon: Toko Chapter 0 — Prelude May 8, 2015 $4.99N/A (N/A)20,000 .. 50,0000%00:00 (00:00)
78 Arclight Cascade Aug 25, 2015 FreeN/A (N/A)0 .. 20,0000%00:00 (00:00)
79 in Space Apr 27, 2015 $0.99N/A (N/A)0 .. 20,0000%00:00 (00:00)
80 12 Labours of Hercules IV: Mother Nature (Platinum Edition) Dec 25, 2015 $2.99N/A (N/A)20,000 .. 50,0000%00:00 (00:00)
81 Botology Jun 24, 2015 $0.49N/A (N/A)50,000 .. 100,00013.33%01:07 (00:44)

Tags over time:

Access restricted.

This feature is only available to users with special access rights. Sorry.

If you want to proceed, you need to register or log in first and then back Steam Spy on Patreon. Look for Indie or Pro pledge.

Don't forget to use the same email as on Steam Spy!

If you've recently backed Steam Spy on Patreon, please note, that it might take around 15 minutes for your access rights to sync. In most cases you'll need to re-login on Steam Spy too.

Owners of this game also own:

Access restricted.

This feature is only available to users with special access rights. Sorry.

If you want to proceed, you need to register or log in first and then back Steam Spy on Patreon. Look for Indie or Pro pledge.

Don't forget to use the same email as on Steam Spy!

If you've recently backed Steam Spy on Patreon, please note, that it might take around 15 minutes for your access rights to sync. In most cases you'll need to re-login on Steam Spy too.

Playtime distribution:

Access restricted.

This feature is only available to users with special access rights. Sorry.

If you want to proceed, you need to register or log in first and then back Steam Spy on Patreon. Look for Indie or Pro pledge.

Don't forget to use the same email as on Steam Spy!

If you've recently backed Steam Spy on Patreon, please note, that it might take around 15 minutes for your access rights to sync. In most cases you'll need to re-login on Steam Spy too.

Playtime (2 weeks):

Access restricted.

This feature is only available to users with special access rights. Sorry.

If you want to proceed, you need to register or log in first and then back Steam Spy on Patreon. Look for Indie or Pro pledge.

Don't forget to use the same email as on Steam Spy!

If you've recently backed Steam Spy on Patreon, please note, that it might take around 15 minutes for your access rights to sync. In most cases you'll need to re-login on Steam Spy too.

User reviews:

Login required.

Please register or log in to see this information.